createdAt,value
2018-07-23T00:03:27.397Z,17.80
2018-07-23T00:08:22.180Z,17.70
2018-07-23T00:13:16.855Z,17.80
2018-07-23T00:18:11.526Z,17.70
2018-07-23T00:23:06.235Z,17.70
2018-07-23T00:32:55.325Z,17.70
2018-07-23T00:37:49.947Z,17.70
2018-07-23T00:42:44.547Z,17.70
2018-07-23T00:47:39.354Z,17.80
2018-07-23T00:52:34.064Z,17.70
2018-07-23T00:57:28.690Z,17.80
2018-07-23T01:02:23.359Z,17.70
2018-07-23T01:07:18.263Z,17.70
2018-07-23T01:12:13.176Z,17.60
2018-07-23T01:17:07.796Z,17.70
2018-07-23T01:22:02.463Z,17.70
2018-07-23T01:26:57.067Z,17.60
2018-07-23T01:31:51.723Z,17.50
2018-07-23T01:36:46.321Z,17.50
2018-07-23T01:41:40.951Z,17.50
2018-07-23T01:46:35.536Z,17.50
2018-07-23T01:51:30.144Z,17.50
2018-07-23T01:56:24.730Z,17.50
2018-07-23T02:01:19.378Z,17.40
2018-07-23T02:06:14.032Z,17.50
2018-07-23T02:11:08.896Z,17.50
2018-07-23T02:16:03.503Z,17.40
2018-07-23T02:20:58.160Z,17.40
2018-07-23T02:25:52.773Z,17.40
2018-07-23T02:30:47.394Z,17.40
2018-07-23T02:35:42.068Z,17.30
2018-07-23T02:40:36.675Z,17.20
2018-07-23T02:45:31.317Z,17.20
2018-07-23T02:50:25.964Z,17.20
2018-07-23T02:55:20.674Z,17.30
2018-07-23T03:00:15.277Z,17.30
2018-07-23T03:05:09.935Z,17.30
2018-07-23T03:10:05.075Z,17.20
2018-07-23T03:14:59.651Z,17.20
2018-07-23T03:19:54.224Z,17.10
2018-07-23T03:24:48.770Z,17.00
2018-07-23T03:29:43.401Z,17.10
2018-07-23T03:34:38.009Z,17.10
2018-07-23T03:39:32.583Z,17.10
2018-07-23T03:44:27.415Z,17.10
2018-07-23T03:49:22.244Z,17.10
2018-07-23T03:54:17.241Z,17.10
2018-07-23T03:59:12.733Z,17.20
2018-07-23T04:04:07.725Z,17.20
2018-07-23T04:09:02.365Z,17.10
2018-07-23T04:13:56.971Z,17.10
2018-07-23T04:18:51.620Z,17.20
2018-07-23T04:23:46.293Z,17.30
2018-07-23T04:28:40.822Z,17.30
2018-07-23T04:33:35.415Z,17.40
2018-07-23T04:38:30.146Z,17.40
2018-07-23T04:43:24.834Z,17.40
2018-07-23T04:48:19.498Z,17.40
2018-07-23T04:53:14.105Z,17.40
2018-07-23T04:58:08.739Z,17.50
2018-07-23T05:03:03.375Z,17.60
2018-07-23T05:07:57.982Z,17.80
2018-07-23T05:12:52.603Z,17.90
2018-07-23T05:17:47.227Z,18.10
2018-07-23T05:22:41.835Z,18.10
2018-07-23T05:27:36.467Z,18.10
2018-07-23T05:32:31.095Z,18.10
2018-07-23T05:37:25.752Z,18.20
2018-07-23T05:42:20.403Z,18.40
2018-07-23T05:47:15.003Z,18.60
2018-07-23T05:52:09.650Z,18.70
2018-07-23T05:57:04.368Z,18.80
2018-07-23T06:01:59.077Z,19.00
2018-07-23T06:06:53.796Z,19.10
2018-07-23T06:11:49.371Z,19.20
2018-07-23T06:16:43.939Z,19.30
2018-07-23T06:21:38.586Z,19.50
2018-07-23T06:26:33.271Z,19.50
2018-07-23T06:31:27.978Z,19.60
2018-07-23T06:36:22.613Z,19.60
2018-07-23T06:41:17.271Z,19.70
2018-07-23T06:46:11.937Z,19.70
2018-07-23T06:51:06.587Z,19.70
2018-07-23T06:56:01.303Z,19.70
2018-07-23T07:00:56.935Z,19.60
2018-07-23T07:05:51.563Z,19.50
2018-07-23T07:10:46.220Z,19.50
2018-07-23T07:15:40.914Z,19.50
2018-07-23T07:20:35.551Z,19.70
2018-07-23T07:25:30.300Z,20.00
2018-07-23T07:30:24.826Z,20.30
2018-07-23T07:35:19.439Z,20.60
2018-07-23T07:40:14.028Z,20.80
2018-07-23T07:45:08.827Z,20.80
2018-07-23T07:50:03.472Z,20.90
2018-07-23T07:54:58.100Z,20.70
2018-07-23T07:59:52.752Z,20.60
2018-07-23T08:04:47.377Z,20.40
2018-07-23T08:09:42.028Z,20.40
2018-07-23T08:14:36.715Z,20.60
2018-07-23T08:19:31.411Z,21.10
2018-07-23T08:24:26.040Z,21.60
2018-07-23T08:29:20.640Z,22.20
2018-07-23T08:34:15.234Z,22.70
2018-07-23T08:39:11.417Z,22.90
2018-07-23T08:44:06.160Z,22.50
2018-07-23T08:49:00.716Z,22.00
2018-07-23T08:53:55.331Z,21.70
2018-07-23T08:58:49.944Z,21.80
2018-07-23T09:03:44.527Z,22.20
2018-07-23T09:08:39.209Z,22.90
2018-07-23T09:13:33.734Z,23.10
2018-07-23T09:18:28.338Z,22.70
2018-07-23T09:23:22.930Z,22.50
2018-07-23T09:28:18.180Z,22.10
2018-07-23T09:33:12.732Z,21.70
2018-07-23T09:38:07.435Z,21.90
2018-07-23T09:43:02.231Z,22.30
2018-07-23T09:47:56.867Z,22.40
2018-07-23T09:52:51.476Z,22.40
2018-07-23T09:57:46.112Z,22.50
2018-07-23T10:02:40.751Z,22.70
2018-07-23T10:07:35.389Z,23.30
2018-07-23T10:12:30.059Z,23.70
2018-07-23T10:17:24.678Z,23.80
2018-07-23T10:22:19.367Z,24.10
2018-07-23T10:27:14.015Z,24.50
2018-07-23T10:32:08.682Z,24.90
2018-07-23T10:37:03.540Z,25.00
2018-07-23T10:41:58.146Z,25.10
2018-07-23T10:46:52.823Z,25.10
2018-07-23T10:51:47.484Z,25.10
2018-07-23T10:56:42.098Z,25.10
2018-07-23T11:01:36.749Z,24.80
2018-07-23T11:06:31.516Z,25.00
2018-07-23T11:11:26.112Z,25.10
2018-07-23T11:16:20.775Z,25.00
2018-07-23T11:21:15.384Z,25.10
2018-07-23T11:26:10.042Z,25.20
2018-07-23T11:31:04.785Z,25.50
2018-07-23T11:35:59.392Z,25.60
2018-07-23T11:40:54.037Z,25.70
2018-07-23T11:45:48.755Z,25.60
2018-07-23T11:50:43.379Z,25.90
2018-07-23T11:55:38.083Z,26.10
2018-07-23T12:05:27.125Z,26.10
2018-07-23T12:10:21.756Z,26.40
2018-07-23T12:15:16.413Z,26.30
2018-07-23T12:20:10.982Z,26.30
2018-07-23T12:25:05.649Z,26.40
2018-07-23T12:30:00.216Z,26.60
2018-07-23T12:34:54.796Z,26.50
2018-07-23T12:39:49.466Z,26.40
2018-07-23T12:44:43.969Z,26.40
2018-07-23T12:49:38.648Z,26.40
2018-07-23T12:54:33.294Z,26.10
2018-07-23T12:59:27.891Z,26.10
2018-07-23T13:04:22.596Z,25.80
2018-07-23T13:09:17.274Z,25.80
2018-07-23T13:14:11.861Z,25.80
2018-07-23T13:19:06.658Z,25.70
2018-07-23T13:24:01.324Z,25.80
2018-07-23T13:28:55.940Z,25.40
2018-07-23T13:33:50.548Z,25.50
2018-07-23T13:38:45.185Z,25.70
2018-07-23T13:43:39.943Z,25.50
2018-07-23T13:48:34.575Z,25.40
2018-07-23T13:53:29.257Z,25.40
2018-07-23T13:58:23.831Z,25.40
2018-07-23T14:03:18.463Z,25.30
2018-07-23T14:08:13.065Z,25.30
2018-07-23T14:13:07.788Z,25.40
2018-07-23T14:18:02.360Z,25.30
2018-07-23T14:22:56.992Z,25.40
2018-07-23T14:27:51.567Z,25.50
2018-07-23T14:32:46.164Z,25.50
2018-07-23T14:37:40.858Z,25.40
2018-07-23T14:42:35.444Z,25.30
2018-07-23T14:47:30.319Z,25.20
2018-07-23T14:52:24.909Z,25.20
2018-07-23T14:57:19.519Z,25.20
2018-07-23T15:02:14.163Z,25.30
2018-07-23T15:07:09.207Z,25.40
2018-07-23T15:12:03.813Z,25.40
2018-07-23T15:16:58.445Z,25.40
2018-07-23T15:21:53.084Z,25.30
2018-07-23T15:26:47.657Z,25.30
2018-07-23T15:31:42.276Z,25.40
2018-07-23T15:36:36.862Z,25.40
2018-07-23T15:41:31.518Z,25.40
2018-07-23T15:46:26.171Z,25.40
2018-07-23T15:51:20.828Z,25.40
2018-07-23T15:56:15.753Z,25.30
2018-07-23T16:01:10.554Z,25.40
2018-07-23T16:06:05.599Z,25.40
2018-07-23T16:11:00.206Z,25.30
2018-07-23T16:15:54.863Z,25.30
2018-07-23T16:25:43.772Z,25.20
2018-07-23T16:30:38.394Z,25.20
2018-07-23T16:35:36.051Z,25.20
2018-07-23T16:45:24.972Z,25.20
2018-07-23T16:50:20.928Z,25.20
2018-07-23T16:55:15.563Z,25.10
2018-07-23T17:00:10.157Z,25.10
2018-07-23T17:05:04.914Z,25.10
2018-07-23T17:09:59.517Z,25.10
2018-07-23T17:14:54.209Z,25.00
2018-07-23T17:19:48.887Z,25.00
2018-07-23T17:24:43.547Z,24.90
2018-07-23T17:29:38.158Z,24.90
2018-07-23T17:34:32.763Z,24.80
2018-07-23T17:39:27.326Z,24.80
2018-07-23T17:44:21.903Z,24.70
2018-07-23T17:49:16.538Z,24.60
2018-07-23T17:54:11.151Z,24.50
2018-07-23T17:59:05.750Z,24.40
2018-07-23T18:04:00.464Z,24.30
2018-07-23T18:08:55.427Z,24.10
2018-07-23T18:18:44.412Z,23.90
2018-07-23T18:23:39.058Z,23.80
2018-07-23T18:28:33.756Z,23.80
2018-07-23T18:33:28.348Z,23.60
2018-07-23T18:38:23.013Z,23.40
2018-07-23T18:43:17.591Z,23.30
2018-07-23T18:50:30.048Z,23.10
2018-07-23T18:55:24.712Z,23.00
2018-07-23T19:00:19.380Z,22.80
2018-07-23T19:05:14.074Z,22.70
2018-07-23T19:10:10.473Z,22.60
2018-07-23T19:15:06.270Z,22.50
2018-07-23T19:20:00.914Z,22.40
2018-07-23T19:24:55.597Z,22.30
2018-07-23T19:29:50.396Z,22.20
2018-07-23T19:34:45.034Z,22.10
2018-07-23T19:39:39.632Z,22.10
2018-07-23T19:44:34.293Z,22.00
2018-07-23T19:49:28.934Z,21.70
2018-07-23T19:54:23.530Z,21.60
2018-07-23T19:59:18.198Z,21.30
2018-07-23T20:04:12.922Z,21.40
2018-07-23T20:09:10.454Z,21.20
2018-07-23T20:14:05.142Z,21.10
2018-07-23T20:18:59.917Z,20.90
2018-07-23T20:23:54.570Z,20.90
2018-07-23T20:28:49.224Z,20.80
2018-07-23T20:38:38.620Z,20.70
2018-07-23T20:43:33.736Z,20.70
2018-07-23T20:48:28.411Z,20.50
2018-07-23T20:53:23.162Z,20.50
2018-07-23T20:58:18.571Z,20.40
2018-07-23T21:03:13.190Z,20.40
2018-07-23T21:08:07.884Z,20.30
2018-07-23T21:13:02.788Z,20.30
2018-07-23T21:17:58.203Z,20.20
2018-07-23T21:22:52.864Z,20.10
2018-07-23T21:27:47.640Z,20.00
2018-07-23T21:32:42.231Z,20.00
2018-07-23T21:37:36.859Z,20.00
2018-07-23T21:42:31.538Z,19.90
2018-07-23T21:47:26.197Z,19.80
2018-07-23T21:52:20.928Z,19.90
2018-07-23T21:57:15.587Z,19.80
2018-07-23T22:02:10.359Z,19.70
2018-07-23T22:07:05.080Z,19.80
2018-07-23T22:11:59.765Z,19.70
2018-07-23T22:16:54.415Z,19.60
2018-07-23T22:21:49.145Z,19.40
2018-07-23T22:26:43.987Z,19.40
2018-07-23T22:31:38.681Z,19.20
2018-07-23T22:36:33.342Z,19.30
2018-07-23T22:46:22.972Z,19.10
2018-07-23T22:51:17.633Z,19.10
2018-07-23T22:56:12.271Z,19.00
2018-07-23T23:01:07.156Z,19.00
2018-07-23T23:06:01.816Z,18.90
2018-07-23T23:10:56.502Z,18.90
2018-07-23T23:15:51.103Z,18.90
2018-07-23T23:20:45.734Z,18.90
2018-07-23T23:25:40.697Z,18.70
2018-07-23T23:30:35.285Z,18.70
2018-07-23T23:35:29.951Z,18.80
2018-07-23T23:40:24.664Z,18.80
2018-07-23T23:45:19.329Z,18.80
2018-07-23T23:50:13.938Z,18.80
2018-07-23T23:55:08.536Z,18.60
